Time;durP1;ratioP1;P1;durP2;ratioP2;P2;SDS_P1;SDS_P2;PMS_P1;PMS_P2;Temp;Humidity;BMP_temperature;BMP_pressure;BME280_temperature;BME280_humidity;BME280_pressure;Samples;Min_cycle;Max_cycle;Signal;HPM_P1;HPM_P2
2022/09/06 00:01:33;;;;;;;;;;;22.10;80.90;;;;;;5062791;28;19950;-83
2022/09/06 00:03:59;;;;;;;;;;;22.10;82.30;;;;;;5086285;28;19929;-83
2022/09/06 00:06:24;;;;;;;;;;;22.00;81.70;;;;;;5035562;28;19980;-83
2022/09/06 00:08:50;;;;;;;;;;;22.00;82.50;;;;;;5085523;28;20389;-84
2022/09/06 00:11:16;;;;;;;;;;;22.00;82.60;;;;;;5052289;28;19928;-84
2022/09/06 00:13:41;;;;;;;;;;;21.90;82.40;;;;;;5052238;28;20003;-83
2022/09/06 00:16:11;;;;;;;;;;;21.90;83.90;;;;;;5069376;28;19947;-84
2022/09/06 00:18:37;;;;;;;;;;;21.90;84.30;;;;;;5068718;28;19921;-84
2022/09/06 00:21:03;;;;;;;;;;;21.80;86.20;;;;;;5051391;28;19970;-84
2022/09/06 00:23:29;;;;;;;;;;;21.80;85.40;;;;;;5051777;28;19967;-83
2022/09/06 00:26:00;;;;;;;;;;;21.70;87.90;;;;;;5051952;28;19956;-84
2022/09/06 00:28:26;;;;;;;;;;;21.70;88.50;;;;;;5053497;28;19966;-84
2022/09/06 00:30:51;;;;;;;;;;;21.70;88.10;;;;;;5068511;28;19924;-83
2022/09/06 00:33:16;;;;;;;;;;;21.70;87.90;;;;;;5068298;28;20401;-84
2022/09/06 00:35:46;;;;;;;;;;;21.70;88.30;;;;;;5051845;28;19925;-83
2022/09/06 00:38:11;;;;;;;;;;;21.60;87.50;;;;;;5051862;28;20374;-83
2022/09/06 00:40:37;;;;;;;;;;;21.60;88.40;;;;;;5051818;28;20436;-84
2022/09/06 00:43:02;;;;;;;;;;;21.60;90.30;;;;;;5034845;28;20294;-84
2022/09/06 00:45:28;;;;;;;;;;;21.50;88.00;;;;;;5051265;28;19928;-84
2022/09/06 00:47:54;;;;;;;;;;;21.50;87.80;;;;;;5051454;28;19921;-84
2022/09/06 00:50:20;;;;;;;;;;;21.40;89.80;;;;;;5034889;28;19925;-84
2022/09/06 00:52:47;;;;;;;;;;;21.30;91.70;;;;;;5067524;28;19921;-83
2022/09/06 00:55:13;;;;;;;;;;;21.20;91.80;;;;;;5051836;28;19921;-84
2022/09/06 00:57:38;;;;;;;;;;;21.10;92.80;;;;;;5051218;28;20435;-84
2022/09/06 01:00:05;;;;;;;;;;;21.00;94.10;;;;;;5034088;28;19921;-84
2022/09/06 01:09:27;;;;;;;;;;;20.90;96.00;;;;;;5052179;28;19920;-84
2022/09/06 01:11:59;;;;;;;;;;;20.80;95.80;;;;;;5050874;28;19928;-84
2022/09/06 01:14:43;;;;;;;;;;;20.70;95.90;;;;;;5050796;28;19928;-84
2022/09/06 01:30:38;;;;;;;;;;;20.60;99.50;;;;;;5050283;28;19919;-83
2022/09/06 01:33:19;;;;;;;;;;;20.60;99.10;;;;;;5030440;28;19986;-83
2022/09/06 01:35:53;;;;;;;;;;;20.60;99.20;;;;;;5030748;28;20474;-83
2022/09/06 01:38:19;;;;;;;;;;;20.60;98.60;;;;;;5030385;28;20314;-84
2022/09/06 01:40:44;;;;;;;;;;;20.60;99.70;;;;;;5014653;28;19932;-83
2022/09/06 01:43:12;;;;;;;;;;;20.60;99.90;;;;;;5030384;28;19928;-83
2022/09/06 01:45:44;;;;;;;;;;;20.60;98.20;;;;;;5029997;28;19925;-83
2022/09/06 01:48:18;;;;;;;;;;;20.50;99.90;;;;;;5027975;28;19924;-83
2022/09/06 01:51:07;;;;;;;;;;;20.40;99.90;;;;;;5050438;28;19921;-83
2022/09/06 01:53:32;;;;;;;;;;;20.40;99.90;;;;;;5033534;28;19999;-83
2022/09/06 01:55:58;;;;;;;;;;;20.40;99.90;;;;;;5033498;28;20041;-83
2022/09/06 01:58:26;;;;;;;;;;;20.40;99.90;;;;;;5050388;28;19935;-83
2022/09/06 02:00:58;;;;;;;;;;;20.30;99.90;;;;;;5050036;28;19944;-83
2022/09/06 02:03:31;;;;;;;;;;;20.40;99.90;;;;;;5033795;28;19920;-83
2022/09/06 02:06:06;;;;;;;;;;;20.30;99.90;;;;;;5050236;28;19956;-83
2022/09/06 02:08:33;;;;;;;;;;;20.30;99.90;;;;;;5033474;28;20341;-83
2022/09/06 02:11:03;;;;;;;;;;;20.30;99.90;;;;;;5033379;28;19946;-83
2022/09/06 02:13:32;;;;;;;;;;;20.30;99.90;;;;;;5033893;28;19920;-83
2022/09/06 02:16:00;;;;;;;;;;;20.20;99.90;;;;;;5050065;28;19925;-83
2022/09/06 02:18:48;;;;;;;;;;;20.20;99.90;;;;;;5050174;28;19921;-83
2022/09/06 02:21:15;;;;;;;;;;;20.10;99.90;;;;;;5033325;28;19952;-83
2022/09/06 02:23:41;;;;;;;;;;;20.10;99.90;;;;;;5050374;28;19928;-83
2022/09/06 02:26:17;;;;;;;;;;;20.10;99.90;;;;;;5033905;28;20058;-83
2022/09/06 02:28:42;;;;;;;;;;;20.00;99.90;;;;;;5033156;28;19925;-83
2022/09/06 02:31:20;;;;;;;;;;;20.00;99.90;;;;;;5033074;28;20321;-84
2022/09/06 02:33:46;;;;;;;;;;;20.00;99.90;;;;;;5050085;28;19921;-83
2022/09/06 02:36:13;;;;;;;;;;;19.90;99.90;;;;;;5049523;28;19971;-83
2022/09/06 02:38:39;;;;;;;;;;;19.90;99.90;;;;;;5033306;28;19921;-83
2022/09/06 02:41:05;;;;;;;;;;;19.90;99.90;;;;;;5049716;28;19940;-83
2022/09/06 02:43:30;;;;;;;;;;;19.90;99.90;;;;;;5049987;28;19925;-83
2022/09/06 02:45:56;;;;;;;;;;;19.90;99.90;;;;;;5033140;28;19928;-83
2022/09/06 02:48:21;;;;;;;;;;;19.90;99.90;;;;;;5049810;28;19921;-83
2022/09/06 02:50:47;;;;;;;;;;;19.80;99.90;;;;;;5049609;28;19924;-83
2022/09/06 02:53:13;;;;;;;;;;;19.80;99.90;;;;;;5049972;28;19927;-83
2022/09/06 02:55:39;;;;;;;;;;;19.80;99.90;;;;;;5050606;28;19921;-83
2022/09/06 02:58:05;;;;;;;;;;;19.80;99.90;;;;;;5036741;28;19921;-83
2022/09/06 03:00:31;;;;;;;;;;;19.80;99.90;;;;;;5036953;28;20015;-84
2022/09/06 03:02:57;;;;;;;;;;;19.80;99.90;;;;;;5053586;28;19959;-83
2022/09/06 03:05:23;;;;;;;;;;;19.80;99.90;;;;;;5036573;28;20448;-83
2022/09/06 03:07:49;;;;;;;;;;;19.80;99.90;;;;;;5053496;28;19971;-83
2022/09/06 03:10:15;;;;;;;;;;;19.90;99.90;;;;;;5053410;28;19968;-83
2022/09/06 03:12:41;;;;;;;;;;;19.90;99.90;;;;;;5053068;28;19921;-83
2022/09/06 03:15:07;;;;;;;;;;;19.90;99.90;;;;;;5052924;28;19921;-83
2022/09/06 03:17:32;;;;;;;;;;;19.90;99.90;;;;;;5053482;28;20413;-83
2022/09/06 03:19:58;;;;;;;;;;;19.90;99.90;;;;;;5036848;28;20329;-83
2022/09/06 03:22:23;;;;;;;;;;;19.90;99.90;;;;;;5052703;28;19935;-83
2022/09/06 03:24:49;;;;;;;;;;;19.90;99.90;;;;;;5053466;28;19932;-83
2022/09/06 03:27:14;;;;;;;;;;;19.90;99.90;;;;;;5036754;28;19920;-83
2022/09/06 03:29:40;;;;;;;;;;;19.90;99.90;;;;;;5053961;28;20417;-83
2022/09/06 03:32:05;;;;;;;;;;;19.90;99.90;;;;;;5052631;28;20086;-83
2022/09/06 03:34:30;;;;;;;;;;;19.90;99.90;;;;;;5053008;28;19925;-83
2022/09/06 03:36:56;;;;;;;;;;;19.90;99.90;;;;;;5052330;28;20306;-83
2022/09/06 03:39:21;;;;;;;;;;;19.90;99.90;;;;;;5052768;28;19975;-83
2022/09/06 03:41:47;;;;;;;;;;;19.90;99.90;;;;;;5036239;28;20370;-83
2022/09/06 03:44:12;;;;;;;;;;;19.90;99.90;;;;;;5052388;28;19921;-83
2022/09/06 03:46:38;;;;;;;;;;;19.90;99.90;;;;;;5052671;28;19921;-83
2022/09/06 03:49:03;;;;;;;;;;;19.90;99.90;;;;;;5036023;28;19925;-84
2022/09/06 03:51:29;;;;;;;;;;;19.90;99.90;;;;;;5052139;28;19968;-83
2022/09/06 03:53:55;;;;;;;;;;;19.90;99.90;;;;;;5052615;28;19928;-83
2022/09/06 03:56:20;;;;;;;;;;;19.90;99.90;;;;;;5052496;28;20291;-83
2022/09/06 03:58:46;;;;;;;;;;;19.90;99.90;;;;;;5035806;28;19947;-83
2022/09/06 04:01:11;;;;;;;;;;;19.90;99.90;;;;;;5052125;28;19920;-83
2022/09/06 04:03:37;;;;;;;;;;;20.00;99.90;;;;;;5051628;28;20290;-83
2022/09/06 04:06:04;;;;;;;;;;;20.00;99.90;;;;;;5052017;28;19928;-83
2022/09/06 04:08:30;;;;;;;;;;;20.00;99.90;;;;;;5034721;28;19936;-83
2022/09/06 04:10:56;;;;;;;;;;;19.90;99.90;;;;;;5052041;28;19921;-83
2022/09/06 04:13:22;;;;;;;;;;;20.00;99.90;;;;;;5051958;28;19928;-83
2022/09/06 04:15:48;;;;;;;;;;;20.00;99.90;;;;;;5052096;28;20322;-84
2022/09/06 04:18:14;;;;;;;;;;;20.00;99.90;;;;;;5052242;28;19920;-83
2022/09/06 04:20:39;;;;;;;;;;;20.00;99.90;;;;;;5035416;28;19925;-84
2022/09/06 04:23:04;;;;;;;;;;;20.00;99.90;;;;;;5052076;28;19928;-83
2022/09/06 04:25:30;;;;;;;;;;;20.00;99.90;;;;;;5052356;28;20019;-83
2022/09/06 04:27:56;;;;;;;;;;;20.00;99.90;;;;;;5051770;28;20436;-83
2022/09/06 04:30:21;;;;;;;;;;;20.00;99.90;;;;;;5052098;28;20007;-83
2022/09/06 04:32:46;;;;;;;;;;;20.00;99.90;;;;;;5035202;28;19925;-83
2022/09/06 04:35:12;;;;;;;;;;;20.00;99.90;;;;;;5052714;28;19921;-83
2022/09/06 04:37:38;;;;;;;;;;;20.00;99.90;;;;;;5053150;28;19924;-83
2022/09/06 04:40:03;;;;;;;;;;;20.00;99.90;;;;;;5051442;28;19925;-83
2022/09/06 04:42:29;;;;;;;;;;;20.00;99.90;;;;;;5051239;28;19920;-83
2022/09/06 04:44:54;;;;;;;;;;;20.00;99.90;;;;;;5051639;28;20321;-83
2022/09/06 04:47:20;;;;;;;;;;;20.00;99.90;;;;;;5052857;28;19975;-83
2022/09/06 04:49:48;;;;;;;;;;;20.00;99.90;;;;;;5051174;28;19921;-83
2022/09/06 04:52:14;;;;;;;;;;;20.00;99.90;;;;;;5051496;28;19921;-84
2022/09/06 04:54:39;;;;;;;;;;;20.00;99.90;;;;;;5035159;28;19968;-84
2022/09/06 04:57:05;;;;;;;;;;;20.00;99.90;;;;;;5034282;28;19932;-84
2022/09/06 04:59:31;;;;;;;;;;;20.00;99.90;;;;;;5051677;28;20035;-84
2022/09/06 05:01:57;;;;;;;;;;;19.90;99.90;;;;;;5051003;28;19928;-84
2022/09/06 05:04:22;;;;;;;;;;;19.90;99.90;;;;;;5051155;28;20325;-84
2022/09/06 05:06:48;;;;;;;;;;;19.90;99.90;;;;;;5051170;28;20011;-83
2022/09/06 05:09:14;;;;;;;;;;;19.90;99.90;;;;;;5034752;28;19927;-83
2022/09/06 05:11:39;;;;;;;;;;;19.90;99.90;;;;;;5033956;28;19920;-83
2022/09/06 05:14:05;;;;;;;;;;;19.90;99.90;;;;;;5034500;28;19974;-83
2022/09/06 05:16:30;;;;;;;;;;;19.80;99.90;;;;;;5051121;28;19994;-84
2022/09/06 05:18:56;;;;;;;;;;;19.80;99.90;;;;;;5033375;28;19928;-84
2022/09/06 05:21:21;;;;;;;;;;;19.80;99.90;;;;;;5034002;28;19920;-83
2022/09/06 05:23:47;;;;;;;;;;;19.80;99.90;;;;;;5051078;28;20073;-83
2022/09/06 05:26:12;;;;;;;;;;;19.80;99.90;;;;;;5050717;28;20019;-84
2022/09/06 05:28:38;;;;;;;;;;;19.80;99.90;;;;;;5050641;28;20330;-83
2022/09/06 05:31:04;;;;;;;;;;;19.80;99.90;;;;;;5050640;28;19976;-83
2022/09/06 05:33:30;;;;;;;;;;;19.70;99.90;;;;;;5050802;28;19924;-83
2022/09/06 05:35:55;;;;;;;;;;;19.70;99.90;;;;;;5050470;28;19921;-84
2022/09/06 05:38:21;;;;;;;;;;;19.70;99.90;;;;;;5050761;28;19999;-83
2022/09/06 05:40:46;;;;;;;;;;;19.70;99.90;;;;;;5033536;28;19967;-84
2022/09/06 05:43:12;;;;;;;;;;;19.70;99.90;;;;;;5050329;28;19983;-83
2022/09/06 05:45:37;;;;;;;;;;;19.60;99.90;;;;;;5033869;28;19921;-83
2022/09/06 05:48:03;;;;;;;;;;;19.60;99.90;;;;;;5033904;28;20422;-84
2022/09/06 05:50:28;;;;;;;;;;;19.60;99.90;;;;;;5050551;28;19921;-84
2022/09/06 05:52:54;;;;;;;;;;;19.60;99.90;;;;;;5033593;28;20011;-83
2022/09/06 05:55:20;;;;;;;;;;;19.60;99.90;;;;;;5033351;28;19931;-83
2022/09/06 05:57:45;;;;;;;;;;;19.60;99.90;;;;;;5050082;28;19925;-84
2022/09/06 06:00:11;;;;;;;;;;;19.50;99.90;;;;;;5050763;28;19924;-83
2022/09/06 06:02:38;;;;;;;;;;;19.50;99.90;;;;;;5033451;28;20400;-84
2022/09/06 06:05:04;;;;;;;;;;;19.50;99.90;;;;;;5049722;28;19928;-84
2022/09/06 06:07:29;;;;;;;;;;;19.50;99.90;;;;;;5034053;28;20282;-84
2022/09/06 06:09:55;;;;;;;;;;;19.50;99.90;;;;;;5033491;28;20409;-84
2022/09/06 06:12:21;;;;;;;;;;;19.50;99.90;;;;;;5049784;28;19964;-84
2022/09/06 06:14:46;;;;;;;;;;;19.50;99.90;;;;;;5050483;28;19925;-84
2022/09/06 06:17:12;;;;;;;;;;;19.50;99.90;;;;;;5050189;28;20286;-84
2022/09/06 06:19:37;;;;;;;;;;;19.40;99.90;;;;;;5033410;28;19921;-84
2022/09/06 06:22:04;;;;;;;;;;;19.40;99.90;;;;;;5049850;28;20011;-83
2022/09/06 06:24:29;;;;;;;;;;;19.40;99.90;;;;;;5050376;28;20110;-83
2022/09/06 06:26:55;;;;;;;;;;;19.40;99.90;;;;;;5033185;28;19921;-83
2022/09/06 06:29:20;;;;;;;;;;;19.40;99.90;;;;;;5050406;28;20015;-84
2022/09/06 06:31:46;;;;;;;;;;;19.40;99.90;;;;;;5035650;28;19921;-83
2022/09/06 06:34:12;;;;;;;;;;;19.40;99.90;;;;;;5053681;28;19924;-84
2022/09/06 06:36:37;;;;;;;;;;;19.40;99.90;;;;;;5054121;28;20393;-84
2022/09/06 06:39:04;;;;;;;;;;;19.40;99.90;;;;;;5054319;28;19935;-84
2022/09/06 06:41:31;;;;;;;;;;;19.50;99.90;;;;;;5053456;28;19921;-84
2022/09/06 06:44:00;;;;;;;;;;;19.50;99.90;;;;;;5037474;28;19921;-84
2022/09/06 06:46:27;;;;;;;;;;;19.50;99.90;;;;;;5053627;28;20294;-84
2022/09/06 06:48:55;;;;;;;;;;;19.50;99.90;;;;;;5052478;28;19927;-84
2022/09/06 06:51:25;;;;;;;;;;;19.60;99.90;;;;;;5053630;28;19920;-84
2022/09/06 06:53:51;;;;;;;;;;;19.60;99.90;;;;;;5054096;28;19964;-84
2022/09/06 06:56:18;;;;;;;;;;;19.60;99.90;;;;;;5036661;28;20444;-85
2022/09/06 06:58:44;;;;;;;;;;;19.60;99.90;;;;;;5037064;28;19921;-84
2022/09/06 07:01:09;;;;;;;;;;;19.60;99.90;;;;;;5036774;28;19920;-84
2022/09/06 07:03:35;;;;;;;;;;;19.70;99.90;;;;;;5053052;28;19924;-84
2022/09/06 07:06:01;;;;;;;;;;;19.70;99.90;;;;;;5053750;28;20318;-84
2022/09/06 07:08:27;;;;;;;;;;;19.70;99.90;;;;;;5053665;28;20298;-84
2022/09/06 07:10:52;;;;;;;;;;;19.70;99.90;;;;;;5054315;28;20451;-84
2022/09/06 07:13:18;;;;;;;;;;;19.80;99.90;;;;;;5053602;28;20011;-84
2022/09/06 07:15:43;;;;;;;;;;;19.80;99.90;;;;;;5054258;28;19921;-84
2022/09/06 07:18:09;;;;;;;;;;;19.80;99.90;;;;;;5052952;28;19928;-84
2022/09/06 07:20:35;;;;;;;;;;;19.80;99.90;;;;;;5053323;28;19983;-85
2022/09/06 07:23:04;;;;;;;;;;;19.80;99.90;;;;;;5053040;28;20291;-84
2022/09/06 07:25:30;;;;;;;;;;;19.90;99.90;;;;;;5036208;28;19970;-85
2022/09/06 07:27:56;;;;;;;;;;;19.90;99.90;;;;;;5036871;28;19921;-85
2022/09/06 07:30:22;;;;;;;;;;;19.90;99.90;;;;;;5036768;28;19985;-85
2022/09/06 07:32:47;;;;;;;;;;;19.90;99.90;;;;;;5035724;28;20441;-85
2022/09/06 07:35:13;;;;;;;;;;;19.90;99.90;;;;;;5036454;28;19920;-85
2022/09/06 07:37:38;;;;;;;;;;;19.90;99.90;;;;;;5052823;28;19925;-84
2022/09/06 07:40:04;;;;;;;;;;;19.90;99.90;;;;;;5052895;28;19927;-84
2022/09/06 07:42:30;;;;;;;;;;;19.90;99.90;;;;;;5051255;28;19971;-85
2022/09/06 07:44:56;;;;;;;;;;;19.90;99.90;;;;;;5052739;28;20294;-85
2022/09/06 07:47:22;;;;;;;;;;;19.90;99.90;;;;;;5052216;28;19921;-84
2022/09/06 07:49:47;;;;;;;;;;;19.90;99.90;;;;;;5052910;28;19928;-84
2022/09/06 07:52:13;;;;;;;;;;;19.90;99.90;;;;;;5052439;28;20019;-84
2022/09/06 07:54:38;;;;;;;;;;;19.90;99.90;;;;;;5052432;28;19943;-84
2022/09/06 07:57:04;;;;;;;;;;;20.00;99.90;;;;;;5052639;28;19924;-84
2022/09/06 07:59:29;;;;;;;;;;;20.00;99.90;;;;;;5052809;28;20437;-84
2022/09/06 08:01:55;;;;;;;;;;;20.10;99.90;;;;;;5052069;28;19925;-85
2022/09/06 08:04:20;;;;;;;;;;;20.10;99.90;;;;;;5052567;28;20403;-84
2022/09/06 08:06:47;;;;;;;;;;;20.10;99.90;;;;;;5051749;28;19983;-84
2022/09/06 08:09:12;;;;;;;;;;;20.10;99.90;;;;;;5052314;28;19920;-84
2022/09/06 08:11:38;;;;;;;;;;;20.20;99.90;;;;;;5035430;28;20024;-84
2022/09/06 08:14:04;;;;;;;;;;;20.20;99.90;;;;;;5035741;28;19991;-84
2022/09/06 08:16:31;;;;;;;;;;;20.30;99.90;;;;;;5051634;28;19940;-85
2022/09/06 08:18:57;;;;;;;;;;;20.40;99.90;;;;;;5052499;28;19944;-84
2022/09/06 08:21:24;;;;;;;;;;;20.40;99.90;;;;;;5035362;28;19928;-84
2022/09/06 08:23:54;;;;;;;;;;;20.60;99.90;;;;;;5034620;28;19921;-84
2022/09/06 08:26:20;;;;;;;;;;;20.70;99.90;;;;;;5052137;28;20374;-84
2022/09/06 08:28:46;;;;;;;;;;;20.80;99.90;;;;;;5052316;28;19928;-85
2022/09/06 08:31:13;;;;;;;;;;;20.90;99.90;;;;;;5051296;28;19927;-85
2022/09/06 08:33:38;;;;;;;;;;;20.90;99.90;;;;;;5034963;28;19927;-85
2022/09/06 08:36:04;;;;;;;;;;;20.90;99.90;;;;;;5051194;28;20011;-85
2022/09/06 08:38:30;;;;;;;;;;;21.00;99.90;;;;;;5033846;28;20412;-85
2022/09/06 08:41:06;;;;;;;;;;;21.00;99.90;;;;;;5034500;28;19920;-85
2022/09/06 08:43:32;;;;;;;;;;;21.10;99.90;;;;;;5052172;28;19983;-85
2022/09/06 08:45:57;;;;;;;;;;;21.30;99.90;;;;;;5051767;28;19921;-85
2022/09/06 08:48:24;;;;;;;;;;;21.40;99.90;;;;;;5051516;28;19920;-85
2022/09/06 08:51:03;;;;;;;;;;;21.50;99.90;;;;;;5051599;28;20007;-85
2022/09/06 08:53:29;;;;;;;;;;;21.60;99.90;;;;;;5051209;28;19931;-85
2022/09/06 08:56:02;;;;;;;;;;;21.70;99.90;;;;;;5050897;28;21264;-85
2022/09/06 08:58:34;;;;;;;;;;;21.80;99.90;;;;;;5051499;28;19929;-85
2022/09/06 09:01:02;;;;;;;;;;;22.00;99.90;;;;;;5051079;28;19920;-85
2022/09/06 09:03:32;;;;;;;;;;;22.10;99.90;;;;;;5051492;28;19928;-85
2022/09/06 09:05:58;;;;;;;;;;;22.20;99.90;;;;;;5051061;28;20557;-85
2022/09/06 09:08:43;;;;;;;;;;;22.30;99.90;;;;;;5034548;28;19944;-85
2022/09/06 09:11:16;;;;;;;;;;;22.40;99.90;;;;;;5034634;28;19971;-85
2022/09/06 09:13:51;;;;;;;;;;;22.50;99.90;;;;;;5051105;28;19921;-85
2022/09/06 09:16:17;;;;;;;;;;;22.70;99.90;;;;;;5050982;28;19975;-85
2022/09/06 09:18:44;;;;;;;;;;;22.70;99.90;;;;;;5051177;28;19925;-85
2022/09/06 09:21:10;;;;;;;;;;;22.80;99.90;;;;;;5050863;28;20409;-85
2022/09/06 09:23:35;;;;;;;;;;;22.90;99.90;;;;;;5033846;28;19920;-85
2022/09/06 09:26:03;;;;;;;;;;;23.00;99.90;;;;;;5050699;28;19920;-85
2022/09/06 09:28:28;;;;;;;;;;;23.10;99.90;;;;;;5050452;28;19975;-85
2022/09/06 09:30:55;;;;;;;;;;;23.20;99.90;;;;;;5033808;28;19972;-85
2022/09/06 09:33:26;;;;;;;;;;;23.30;99.90;;;;;;5050831;28;19986;-85
2022/09/06 09:35:52;;;;;;;;;;;23.40;99.90;;;;;;5050730;28;19921;-85
2022/09/06 09:38:27;;;;;;;;;;;23.50;99.90;;;;;;5049156;28;19935;-85
2022/09/06 09:40:57;;;;;;;;;;;23.60;99.90;;;;;;5040866;28;19928;-85
2022/09/06 09:43:22;;;;;;;;;;;23.70;99.90;;;;;;5050684;28;20374;-85
2022/09/06 09:46:06;;;;;;;;;;;23.80;99.90;;;;;;5040898;28;20021;-86
2022/09/06 09:48:32;;;;;;;;;;;23.90;99.90;;;;;;5070734;28;20008;-85
2022/09/06 09:51:14;;;;;;;;;;;24.00;99.90;;;;;;5037936;28;19964;-85
2022/09/06 09:53:48;;;;;;;;;;;24.00;99.90;;;;;;5046940;28;19983;-86
2022/09/06 09:56:14;;;;;;;;;;;24.10;99.90;;;;;;5058099;28;20027;-86
2022/09/06 09:58:39;;;;;;;;;;;24.20;99.90;;;;;;5050683;28;19952;-86
2022/09/06 10:01:09;;;;;;;;;;;24.30;99.90;;;;;;5049853;28;20465;-86
2022/09/06 10:03:35;;;;;;;;;;;24.30;99.90;;;;;;5033120;28;19922;-85
2022/09/06 10:06:00;;;;;;;;;;;24.40;99.90;;;;;;5050710;28;19924;-85
2022/09/06 10:08:29;;;;;;;;;;;24.50;99.90;;;;;;5033593;28;20019;-85
2022/09/06 10:10:55;;;;;;;;;;;24.50;99.90;;;;;;5049981;28;19921;-85
2022/09/06 10:13:21;;;;;;;;;;;24.50;99.90;;;;;;5050591;28;20301;-86
2022/09/06 10:15:48;;;;;;;;;;;24.60;99.90;;;;;;5049880;28;19968;-85
2022/09/06 10:18:28;;;;;;;;;;;24.70;99.90;;;;;;5050103;28;19921;-86
2022/09/06 10:21:01;;;;;;;;;;;24.80;99.90;;;;;;5033314;28;19933;-85
2022/09/06 10:23:36;;;;;;;;;;;24.80;99.90;;;;;;5049901;28;20382;-86
2022/09/06 10:26:01;;;;;;;;;;;24.90;99.90;;;;;;5050106;28;19921;-85
2022/09/06 10:28:29;;;;;;;;;;;25.00;99.90;;;;;;5050071;28;19953;-85
2022/09/06 10:30:58;;;;;;;;;;;25.10;99.90;;;;;;5049400;28;20402;-85
2022/09/06 10:33:33;;;;;;;;;;;25.20;99.90;;;;;;5050002;28;20011;-85
2022/09/06 10:36:00;;;;;;;;;;;25.30;99.90;;;;;;5033134;28;19921;-86
2022/09/06 10:38:31;;;;;;;;;;;25.30;99.20;;;;;;5049788;28;19925;-86
2022/09/06 10:41:03;;;;;;;;;;;25.40;98.20;;;;;;5049837;28;19947;-86
2022/09/06 10:43:38;;;;;;;;;;;25.50;98.10;;;;;;5049848;28;20464;-85
2022/09/06 10:46:09;;;;;;;;;;;25.60;97.90;;;;;;5049526;28;19931;-86
2022/09/06 10:48:37;;;;;;;;;;;25.70;96.00;;;;;;5049956;28;19978;-85
2022/09/06 10:51:06;;;;;;;;;;;25.80;97.10;;;;;;5033240;28;19921;-86
2022/09/06 10:53:47;;;;;;;;;;;25.90;96.90;;;;;;5049656;28;20413;-86
2022/09/06 10:56:22;;;;;;;;;;;25.90;96.70;;;;;;5049707;28;20360;-85
2022/09/06 10:58:47;;;;;;;;;;;26.10;96.90;;;;;;5049845;28;20008;-86
2022/09/06 11:01:20;;;;;;;;;;;26.20;96.40;;;;;;5049558;28;20050;-85
2022/09/06 11:03:46;;;;;;;;;;;26.30;96.70;;;;;;5050146;28;20260;-86
2022/09/06 11:06:12;;;;;;;;;;;26.40;95.90;;;;;;5049531;28;20366;-86
2022/09/06 11:09:10;;;;;;;;;;;26.50;94.50;;;;;;5032735;28;19921;-86
2022/09/06 11:11:43;;;;;;;;;;;26.60;94.10;;;;;;5032893;28;19921;-86
2022/09/06 11:14:11;;;;;;;;;;;26.70;94.20;;;;;;5049677;28;19972;-85
2022/09/06 11:16:42;;;;;;;;;;;26.80;91.90;;;;;;5049811;28;19928;-86
2022/09/06 11:19:07;;;;;;;;;;;26.90;91.70;;;;;;5053664;28;19935;-86
2022/09/06 11:21:46;;;;;;;;;;;27.00;91.20;;;;;;5052926;28;19925;-86
2022/09/06 11:24:13;;;;;;;;;;;27.00;89.90;;;;;;5053565;28;20330;-86
2022/09/06 11:27:05;;;;;;;;;;;27.20;89.00;;;;;;5052984;28;19920;-86
2022/09/06 11:29:31;;;;;;;;;;;27.30;87.70;;;;;;5028518;28;19978;-86
2022/09/06 11:32:00;;;;;;;;;;;27.30;83.80;;;;;;5052744;28;20389;-86
2022/09/06 11:34:30;;;;;;;;;;;27.30;80.70;;;;;;5036208;28;19936;-86
2022/09/06 11:36:57;;;;;;;;;;;27.40;83.60;;;;;;5052279;28;19978;-86
2022/09/06 11:39:34;;;;;;;;;;;27.50;83.60;;;;;;5052973;28;20398;-86
2022/09/06 11:42:00;;;;;;;;;;;27.60;82.20;;;;;;5053106;28;20270;-86
2022/09/06 11:44:44;;;;;;;;;;;27.70;80.10;;;;;;5052648;28;20437;-86
2022/09/06 11:47:29;;;;;;;;;;;27.80;78.10;;;;;;5052376;28;19927;-86
2022/09/06 11:49:55;;;;;;;;;;;27.90;78.10;;;;;;5052009;28;19920;-86
2022/09/06 11:52:47;;;;;;;;;;;28.00;77.20;;;;;;5052244;28;20016;-86
2022/09/06 11:55:14;;;;;;;;;;;28.10;75.00;;;;;;5035852;28;20012;-86
2022/09/06 11:57:40;;;;;;;;;;;28.30;74.80;;;;;;5052461;28;20390;-86
2022/09/06 12:00:07;;;;;;;;;;;28.30;73.30;;;;;;5052447;28;19931;-86
2022/09/06 12:02:33;;;;;;;;;;;28.50;74.90;;;;;;5053541;28;20401;-86
2022/09/06 12:04:59;;;;;;;;;;;28.60;75.60;;;;;;5052419;28;19921;-86
2022/09/06 12:07:25;;;;;;;;;;;28.70;71.40;;;;;;5052188;28;19974;-86
2022/09/06 12:09:51;;;;;;;;;;;28.80;70.30;;;;;;5029628;28;19968;-86
2022/09/06 12:12:35;;;;;;;;;;;28.80;67.90;;;;;;5052246;28;20378;-86
2022/09/06 12:15:21;;;;;;;;;;;29.00;69.40;;;;;;5051887;28;19929;-86
2022/09/06 12:17:46;;;;;;;;;;;29.10;69.70;;;;;;5051623;28;19940;-86
2022/09/06 12:20:32;;;;;;;;;;;29.30;68.50;;;;;;5086352;28;19924;-86
2022/09/06 12:22:57;;;;;;;;;;;29.50;68.40;;;;;;5067885;28;19921;-86
2022/09/06 12:25:32;;;;;;;;;;;29.60;67.10;;;;;;5051970;28;19921;-86
2022/09/06 12:27:59;;;;;;;;;;;29.90;67.40;;;;;;5035044;28;19946;-86
2022/09/06 12:30:36;;;;;;;;;;;30.20;64.90;;;;;;5051684;28;19925;-87
2022/09/06 12:33:06;;;;;;;;;;;30.30;61.80;;;;;;5085327;28;19971;-87
2022/09/06 12:35:33;;;;;;;;;;;30.30;63.10;;;;;;5052091;28;20324;-87
2022/09/06 12:38:00;;;;;;;;;;;30.20;61.00;;;;;;5051529;28;19960;-87
2022/09/06 12:40:46;;;;;;;;;;;30.10;60.20;;;;;;5053085;28;19924;-87
2022/09/06 12:43:13;;;;;;;;;;;30.20;60.80;;;;;;5067642;28;19928;-87
2022/09/06 12:45:46;;;;;;;;;;;30.50;61.10;;;;;;5051418;28;19935;-86
2022/09/06 12:48:32;;;;;;;;;;;30.60;59.30;;;;;;5053091;28;19998;-87
2022/09/06 12:51:05;;;;;;;;;;;30.90;58.40;;;;;;5051936;28;19920;-87
2022/09/06 12:53:33;;;;;;;;;;;31.10;57.70;;;;;;5051599;28;19928;-86
2022/09/06 12:56:11;;;;;;;;;;;31.10;55.30;;;;;;5084750;28;20325;-87
2022/09/06 12:58:38;;;;;;;;;;;31.10;55.50;;;;;;5084636;28;19968;-87
2022/09/06 13:01:07;;;;;;;;;;;31.20;56.20;;;;;;5051363;28;19975;-87
2022/09/06 13:03:39;;;;;;;;;;;31.40;56.10;;;;;;5051146;28;19928;-87
2022/09/06 13:06:05;;;;;;;;;;;31.40;54.10;;;;;;5034145;28;20217;-86
2022/09/06 13:08:36;;;;;;;;;;;31.40;53.90;;;;;;5082439;28;19931;-87
2022/09/06 13:11:02;;;;;;;;;;;31.50;54.00;;;;;;5041566;28;19931;-87
2022/09/06 13:13:28;;;;;;;;;;;31.70;54.20;;;;;;5031008;28;19991;-86
2022/09/06 13:15:54;;;;;;;;;;;32.00;53.40;;;;;;5041938;28;20406;-87
2022/09/06 13:18:31;;;;;;;;;;;32.00;52.40;;;;;;5039796;28;19921;-87
2022/09/06 13:21:04;;;;;;;;;;;31.90;51.60;;;;;;5056414;28;19925;-87
2022/09/06 13:23:50;;;;;;;;;;;31.60;52.00;;;;;;5039156;28;19921;-86
2022/09/06 13:26:35;;;;;;;;;;;31.50;52.10;;;;;;5037490;28;19921;-86
2022/09/06 13:29:30;;;;;;;;;;;31.40;52.00;;;;;;5071035;28;19925;-86
2022/09/06 13:31:57;;;;;;;;;;;31.30;51.60;;;;;;5022058;28;19921;-86
2022/09/06 13:34:24;;;;;;;;;;;31.20;51.00;;;;;;5030993;28;19932;-86
2022/09/06 13:36:51;;;;;;;;;;;31.50;52.00;;;;;;5046948;28;19921;-86
2022/09/06 13:39:30;;;;;;;;;;;31.60;51.90;;;;;;5030794;28;20310;-86
2022/09/06 13:41:59;;;;;;;;;;;31.50;50.30;;;;;;5030126;28;19922;-86
2022/09/06 13:44:29;;;;;;;;;;;31.60;51.00;;;;;;5047060;28;20003;-86
2022/09/06 13:46:55;;;;;;;;;;;31.50;50.10;;;;;;5063534;28;20000;-86
2022/09/06 13:49:24;;;;;;;;;;;31.40;49.90;;;;;;5049541;28;20365;-87
2022/09/06 13:51:51;;;;;;;;;;;31.50;50.60;;;;;;5040242;28;20437;-86
2022/09/06 13:54:16;;;;;;;;;;;31.60;50.90;;;;;;5040963;28;20338;-86
2022/09/06 13:56:46;;;;;;;;;;;31.50;49.80;;;;;;5041953;28;19972;-86
2022/09/06 13:59:12;;;;;;;;;;;31.40;50.70;;;;;;5038789;28;19925;-86
2022/09/06 14:01:38;;;;;;;;;;;31.50;51.20;;;;;;5041843;28;19924;-86
2022/09/06 14:04:05;;;;;;;;;;;31.50;50.10;;;;;;5041225;28;19950;-87
2022/09/06 14:06:30;;;;;;;;;;;31.30;50.90;;;;;;5038829;28;19925;-86
2022/09/06 14:08:56;;;;;;;;;;;31.10;49.90;;;;;;5040570;28;19921;-87
2022/09/06 14:11:21;;;;;;;;;;;31.00;50.30;;;;;;5039023;28;20229;-86
2022/09/06 14:13:47;;;;;;;;;;;30.70;49.90;;;;;;5039430;28;19966;-86
2022/09/06 14:16:12;;;;;;;;;;;30.50;51.10;;;;;;5052097;28;19925;-86
2022/09/06 14:18:39;;;;;;;;;;;30.60;51.60;;;;;;5031584;28;20413;-86
2022/09/06 14:21:06;;;;;;;;;;;30.70;51.70;;;;;;5029644;28;19921;-86
2022/09/06 14:23:31;;;;;;;;;;;31.00;51.30;;;;;;5030205;28;19971;-86
2022/09/06 14:25:58;;;;;;;;;;;31.10;50.30;;;;;;5030183;28;19925;-86
2022/09/06 14:28:24;;;;;;;;;;;31.30;49.90;;;;;;5030961;28;19921;-86
2022/09/06 14:30:50;;;;;;;;;;;31.40;50.00;;;;;;5030051;28;19928;-87
2022/09/06 14:33:16;;;;;;;;;;;31.30;49.50;;;;;;5030101;28;19921;-86
2022/09/06 14:35:41;;;;;;;;;;;31.20;48.60;;;;;;5030986;28;19951;-86
2022/09/06 14:38:07;;;;;;;;;;;30.90;49.90;;;;;;5046395;28;19921;-86
2022/09/06 14:40:34;;;;;;;;;;;30.80;50.70;;;;;;5029326;28;20397;-86
2022/09/06 14:42:59;;;;;;;;;;;30.90;51.70;;;;;;5029466;28;20015;-86